Time;durP1;ratioP1;P1;durP2;ratioP2;P2;SDS_P1;SDS_P2;PMS_P1;PMS_P2;Temp;Humidity;BMP_temperature;BMP_pressure;BME280_temperature;BME280_humidity;BME280_pressure;Samples;Min_cycle;Max_cycle;Signal;HPM_P1;HPM_P2
2023/01/31 00:01:21;;;;;;;;;;;15.50;57.70;;;;;;10373602;28;94452;-61
2023/01/31 00:06:30;;;;;;;;;;;15.50;57.80;;;;;;10373160;28;93851;-60
2023/01/31 00:11:32;;;;;;;;;;;15.50;58.70;;;;;;10373237;28;93680;-60
2023/01/31 00:16:36;;;;;;;;;;;15.50;57.80;;;;;;10371728;28;93576;-60
2023/01/31 00:21:42;;;;;;;;;;;15.40;57.70;;;;;;10370081;28;95856;-60
2023/01/31 00:26:44;;;;;;;;;;;15.40;58.00;;;;;;10370578;28;93084;-60
2023/01/31 00:31:46;;;;;;;;;;;15.40;57.80;;;;;;10408306;28;94219;-60
2023/01/31 00:36:47;;;;;;;;;;;15.50;57.70;;;;;;10394674;28;93501;-60
2023/01/31 00:41:49;;;;;;;;;;;15.40;57.50;;;;;;10413253;28;94302;-60
2023/01/31 00:46:51;;;;;;;;;;;15.40;57.50;;;;;;10414180;28;94484;-60
2023/01/31 00:51:53;;;;;;;;;;;15.50;57.50;;;;;;10412213;28;93471;-61
2023/01/31 00:56:55;;;;;;;;;;;15.50;57.50;;;;;;10414627;28;93071;-60
2023/01/31 01:01:56;;;;;;;;;;;15.40;57.40;;;;;;10412482;28;94473;-60
2023/01/31 01:06:58;;;;;;;;;;;15.40;57.40;;;;;;10411909;28;94617;-60
2023/01/31 01:12:00;;;;;;;;;;;15.40;57.40;;;;;;10408535;28;95988;-60
2023/01/31 01:17:02;;;;;;;;;;;15.40;57.40;;;;;;10412343;28;92740;-60
2023/01/31 01:22:04;;;;;;;;;;;15.30;57.30;;;;;;10411653;28;92859;-60
2023/01/31 01:27:06;;;;;;;;;;;15.30;57.50;;;;;;10365927;28;94532;-61
2023/01/31 01:32:08;;;;;;;;;;;15.30;57.60;;;;;;10368662;28;93345;-60
2023/01/31 01:37:10;;;;;;;;;;;15.30;57.60;;;;;;10371042;28;96101;-60
2023/01/31 01:42:15;;;;;;;;;;;15.30;57.70;;;;;;10370322;28;94528;-61
2023/01/31 01:47:29;;;;;;;;;;;15.30;57.70;;;;;;10371503;28;92292;-60
2023/01/31 01:52:32;;;;;;;;;;;15.20;57.70;;;;;;10370050;28;93482;-60
2023/01/31 01:57:36;;;;;;;;;;;15.20;57.70;;;;;;10370197;28;94758;-60
2023/01/31 02:02:38;;;;;;;;;;;15.30;57.90;;;;;;10802692;22;96470;-61
2023/01/31 02:07:40;;;;;;;;;;;15.30;57.60;;;;;;10408003;28;93521;-61
2023/01/31 02:12:42;;;;;;;;;;;15.30;57.40;;;;;;10389561;28;94636;-59
2023/01/31 02:17:44;;;;;;;;;;;15.30;57.40;;;;;;10410728;28;93243;-59
2023/01/31 02:22:55;;;;;;;;;;;15.30;57.30;;;;;;10411208;28;94271;-58
2023/01/31 02:28:05;;;;;;;;;;;15.30;57.30;;;;;;10411176;28;93413;-59
2023/01/31 02:33:07;;;;;;;;;;;15.30;57.30;;;;;;10411189;28;93465;-59
2023/01/31 02:38:18;;;;;;;;;;;15.30;57.30;;;;;;10411152;28;93515;-59
2023/01/31 02:43:26;;;;;;;;;;;15.30;57.30;;;;;;10415091;27;93461;-59
2023/01/31 02:48:47;;;;;;;;;;;15.30;57.30;;;;;;10416226;28;94235;-60
2023/01/31 02:53:58;;;;;;;;;;;15.20;57.30;;;;;;10396379;28;95336;-60
2023/01/31 02:59:05;;;;;;;;;;;15.20;57.30;;;;;;10398667;28;94617;-60
2023/01/31 03:04:08;;;;;;;;;;;15.20;57.50;;;;;;10414516;28;93354;-60
2023/01/31 03:09:20;;;;;;;;;;;15.10;57.40;;;;;;10414342;28;93883;-60
2023/01/31 03:14:34;;;;;;;;;;;15.10;57.60;;;;;;10414709;28;94344;-60
2023/01/31 03:19:47;;;;;;;;;;;15.10;57.60;;;;;;10414925;28;94004;-61
2023/01/31 03:24:53;;;;;;;;;;;15.10;57.60;;;;;;10413297;28;94235;-61
2023/01/31 03:29:58;;;;;;;;;;;15.10;57.70;;;;;;10415111;28;92720;-60
2023/01/31 03:35:00;;;;;;;;;;;15.10;57.70;;;;;;10398113;28;94559;-59
2023/01/31 03:40:04;;;;;;;;;;;15.20;57.60;;;;;;10415662;28;93837;-61
2023/01/31 03:45:09;;;;;;;;;;;15.20;57.50;;;;;;10413786;28;96465;-61
2023/01/31 03:50:17;;;;;;;;;;;15.20;57.40;;;;;;10416291;28;94672;-60
2023/01/31 03:55:22;;;;;;;;;;;15.20;57.30;;;;;;10412901;27;93063;-60
2023/01/31 04:00:24;;;;;;;;;;;15.20;57.30;;;;;;10414878;28;93777;-60
2023/01/31 04:05:29;;;;;;;;;;;15.20;57.30;;;;;;10424830;28;94467;-60
2023/01/31 04:10:31;;;;;;;;;;;15.10;57.30;;;;;;10413628;28;93475;-60
2023/01/31 04:15:32;;;;;;;;;;;15.10;57.30;;;;;;10414892;28;94452;-60
2023/01/31 04:20:34;;;;;;;;;;;15.10;57.30;;;;;;10414317;28;92587;-61
2023/01/31 04:25:36;;;;;;;;;;;15.10;57.40;;;;;;10394435;28;93174;-60
2023/01/31 04:30:37;;;;;;;;;;;15.10;57.40;;;;;;10413335;28;93658;-59
2023/01/31 04:35:39;;;;;;;;;;;15.10;57.50;;;;;;10410947;28;96996;-60
2023/01/31 04:40:41;;;;;;;;;;;15.00;57.50;;;;;;10413316;28;93443;-60
2023/01/31 06:03:16;;;;;;;;;;;15.80;57.00;;;;;;10360124;28;93718;-62
2023/01/31 06:08:18;;;;;;;;;;;16.10;56.30;;;;;;10409501;28;94773;-59
2023/01/31 06:13:20;;;;;;;;;;;16.30;56.00;;;;;;10410964;28;94455;-60
2023/01/31 06:18:21;;;;;;;;;;;16.40;55.80;;;;;;10417911;27;92925;-60
2023/01/31 06:23:23;;;;;;;;;;;16.50;55.70;;;;;;10417543;28;94136;-61
2023/01/31 06:28:25;;;;;;;;;;;16.60;55.40;;;;;;10415977;28;94008;-60
2023/01/31 06:33:28;;;;;;;;;;;16.80;55.30;;;;;;10414999;28;95897;-60
2023/01/31 06:38:50;;;;;;;;;;;16.90;55.00;;;;;;10387215;28;93535;-60
2023/01/31 06:43:51;;;;;;;;;;;16.80;54.80;;;;;;10418254;28;94608;-60
2023/01/31 06:48:53;;;;;;;;;;;16.80;56.50;;;;;;10416947;28;93489;-60
2023/01/31 06:53:55;;;;;;;;;;;16.80;57.30;;;;;;10394766;28;93335;-60
2023/01/31 06:58:57;;;;;;;;;;;16.70;57.60;;;;;;10356844;28;94575;-60
2023/01/31 07:03:59;;;;;;;;;;;16.70;57.50;;;;;;10354056;28;94136;-60
2023/01/31 07:09:01;;;;;;;;;;;16.60;57.40;;;;;;10375624;28;92785;-61
2023/01/31 07:14:03;;;;;;;;;;;16.70;57.40;;;;;;10366430;28;93497;-61
2023/01/31 07:19:05;;;;;;;;;;;16.60;57.50;;;;;;10365826;28;94444;-61
2023/01/31 07:24:07;;;;;;;;;;;16.50;57.80;;;;;;10333293;28;96685;-61
2023/01/31 07:29:10;;;;;;;;;;;16.40;57.80;;;;;;10319378;28;95191;-60
2023/01/31 07:34:12;;;;;;;;;;;16.40;58.30;;;;;;10352130;28;94776;-60
2023/01/31 07:39:14;;;;;;;;;;;16.30;58.80;;;;;;10376254;28;93688;-60
2023/01/31 07:44:17;;;;;;;;;;;16.30;61.10;;;;;;10372357;28;94285;-61
2023/01/31 07:49:19;;;;;;;;;;;16.20;63.00;;;;;;10342219;28;94079;-60
2023/01/31 07:54:21;;;;;;;;;;;16.10;63.20;;;;;;10301462;28;94152;-60
2023/01/31 07:59:22;;;;;;;;;;;16.10;63.40;;;;;;10338009;28;92895;-60
2023/01/31 08:04:24;;;;;;;;;;;16.00;63.70;;;;;;10368778;28;93483;-59
2023/01/31 08:09:26;;;;;;;;;;;15.90;62.90;;;;;;10413244;28;94471;-60
2023/01/31 08:14:28;;;;;;;;;;;15.90;64.10;;;;;;10525431;28;19975;-59
2023/01/31 08:19:30;;;;;;;;;;;15.80;63.00;;;;;;10513785;28;19932;-60
2023/01/31 08:24:32;;;;;;;;;;;15.70;62.50;;;;;;10536851;28;19937;-60
2023/01/31 08:29:34;;;;;;;;;;;15.70;62.50;;;;;;10477131;28;20011;-59
2023/01/31 08:34:37;;;;;;;;;;;15.60;62.70;;;;;;10491229;28;19933;-60
2023/01/31 08:39:38;;;;;;;;;;;15.60;64.60;;;;;;10509892;28;20797;-60
2023/01/31 08:44:42;;;;;;;;;;;15.60;65.50;;;;;;10529650;28;19983;-60
2023/01/31 08:49:44;;;;;;;;;;;15.60;65.20;;;;;;10529596;28;20896;-60
2023/01/31 08:54:46;;;;;;;;;;;15.50;64.90;;;;;;10546688;28;19932;-60
2023/01/31 08:59:48;;;;;;;;;;;15.50;65.00;;;;;;10566915;28;20078;-60
2023/01/31 09:04:49;;;;;;;;;;;15.50;64.80;;;;;;10567917;28;19971;-60
2023/01/31 09:09:51;;;;;;;;;;;15.40;64.60;;;;;;10572043;28;19932;-60
2023/01/31 09:14:53;;;;;;;;;;;15.30;64.30;;;;;;10571522;28;20016;-60
2023/01/31 09:19:55;;;;;;;;;;;15.30;64.10;;;;;;10571000;28;20348;-60
2023/01/31 09:24:57;;;;;;;;;;;15.30;63.90;;;;;;10528950;28;19936;-60
2023/01/31 09:29:59;;;;;;;;;;;15.30;63.90;;;;;;10529488;28;20031;-60
2023/01/31 09:35:00;;;;;;;;;;;15.30;63.90;;;;;;10511589;28;20019;-60
2023/01/31 09:40:03;;;;;;;;;;;15.20;63.70;;;;;;10529162;28;20022;-60
2023/01/31 09:45:10;;;;;;;;;;;15.20;63.80;;;;;;10529249;28;20489;-60
2023/01/31 09:50:26;;;;;;;;;;;15.20;63.80;;;;;;10530596;28;19933;-60
2023/01/31 09:55:43;;;;;;;;;;;15.10;63.70;;;;;;10535704;28;19936;-60
2023/01/31 10:00:47;;;;;;;;;;;15.10;63.50;;;;;;10536852;28;19932;-60
2023/01/31 10:05:51;;;;;;;;;;;15.10;63.60;;;;;;10534032;28;19939;-60
2023/01/31 10:10:55;;;;;;;;;;;15.10;63.60;;;;;;10444072;28;92508;-60
2023/01/31 10:16:04;;;;;;;;;;;15.00;63.40;;;;;;10317124;28;93176;-60
2023/01/31 10:21:09;;;;;;;;;;;15.00;63.40;;;;;;10335144;28;93645;-60
2023/01/31 10:26:14;;;;;;;;;;;15.00;63.30;;;;;;10335264;28;93530;-60
2023/01/31 10:31:25;;;;;;;;;;;15.00;63.20;;;;;;10336866;28;93652;-60
2023/01/31 10:36:32;;;;;;;;;;;15.00;63.20;;;;;;10334809;28;93526;-60
2023/01/31 10:41:46;;;;;;;;;;;15.00;63.10;;;;;;10335104;28;93425;-60
2023/01/31 10:46:48;;;;;;;;;;;15.00;63.00;;;;;;10332205;28;96617;-61
2023/01/31 10:52:05;;;;;;;;;;;14.90;62.90;;;;;;10334219;28;93283;-60
2023/01/31 10:57:07;;;;;;;;;;;14.90;62.70;;;;;;10333223;28;92935;-60
2023/01/31 11:02:17;;;;;;;;;;;14.90;62.70;;;;;;10333445;28;93448;-60
2023/01/31 11:07:19;;;;;;;;;;;14.90;62.80;;;;;;10316389;28;94706;-59
2023/01/31 11:12:21;;;;;;;;;;;14.90;62.80;;;;;;10333017;28;93819;-60
2023/01/31 11:17:23;;;;;;;;;;;14.90;62.70;;;;;;10332991;28;94076;-59
2023/01/31 11:22:27;;;;;;;;;;;14.90;62.70;;;;;;10334253;28;92727;-60
2023/01/31 11:27:36;;;;;;;;;;;14.90;62.70;;;;;;10333234;28;94017;-60
2023/01/31 11:32:38;;;;;;;;;;;14.90;62.60;;;;;;10332591;28;94634;-60
2023/01/31 11:37:56;;;;;;;;;;;14.90;62.60;;;;;;10330813;28;96848;-60
2023/01/31 11:43:03;;;;;;;;;;;14.80;62.60;;;;;;10332542;28;94647;-60
2023/01/31 11:48:07;;;;;;;;;;;14.80;62.60;;;;;;10315426;28;93321;-60
2023/01/31 11:53:19;;;;;;;;;;;14.80;62.50;;;;;;10332393;28;93602;-60
2023/01/31 11:58:30;;;;;;;;;;;14.80;62.50;;;;;;10332719;28;93460;-59
2023/01/31 12:03:32;;;;;;;;;;;14.80;62.40;;;;;;10331607;28;94053;-60
2023/01/31 12:08:37;;;;;;;;;;;14.80;62.50;;;;;;10332229;28;94620;-60
2023/01/31 12:13:46;;;;;;;;;;;14.80;62.50;;;;;;10331722;28;92986;-60
2023/01/31 12:19:07;;;;;;;;;;;14.80;62.50;;;;;;10313677;28;93514;-60
2023/01/31 12:24:25;;;;;;;;;;;14.80;62.30;;;;;;10322804;28;93236;-60
2023/01/31 12:29:38;;;;;;;;;;;14.80;62.00;;;;;;10367355;28;95674;-60
2023/01/31 12:34:58;;;;;;;;;;;14.90;61.90;;;;;;10353922;28;93993;-60
2023/01/31 12:40:09;;;;;;;;;;;14.90;61.90;;;;;;10371356;28;93432;-59
2023/01/31 12:45:33;;;;;;;;;;;14.90;61.80;;;;;;10357176;28;94423;-60
2023/01/31 12:50:41;;;;;;;;;;;14.90;61.80;;;;;;10372392;28;94662;-60
2023/01/31 12:55:43;;;;;;;;;;;14.90;61.80;;;;;;10371051;28;93484;-60
2023/01/31 13:00:44;;;;;;;;;;;14.90;61.70;;;;;;10352855;28;93744;-60
2023/01/31 13:05:50;;;;;;;;;;;15.00;61.80;;;;;;10372526;28;96297;-60
2023/01/31 13:10:56;;;;;;;;;;;15.00;61.80;;;;;;10371269;28;94505;-59
2023/01/31 13:16:02;;;;;;;;;;;15.00;61.90;;;;;;10352923;28;94947;-61
2023/01/31 13:21:05;;;;;;;;;;;15.00;61.90;;;;;;10368058;28;95871;-60
2023/01/31 13:26:10;;;;;;;;;;;15.00;61.90;;;;;;10368842;28;93445;-60
2023/01/31 13:31:20;;;;;;;;;;;15.00;61.90;;;;;;10372082;28;93917;-60
2023/01/31 13:36:31;;;;;;;;;;;15.00;61.90;;;;;;10370496;28;93909;-60
2023/01/31 13:41:32;;;;;;;;;;;14.90;61.90;;;;;;10370918;28;94434;-60
2023/01/31 13:46:36;;;;;;;;;;;15.00;61.90;;;;;;10352727;28;93550;-60
2023/01/31 13:51:51;;;;;;;;;;;14.90;61.80;;;;;;10370312;28;94408;-60
2023/01/31 13:56:53;;;;;;;;;;;14.90;61.90;;;;;;10371327;28;93535;-60
2023/01/31 14:01:57;;;;;;;;;;;14.90;61.90;;;;;;10370878;28;94273;-60
2023/01/31 14:07:00;;;;;;;;;;;14.90;61.90;;;;;;10369053;28;93491;-60
2023/01/31 14:12:08;;;;;;;;;;;14.90;61.90;;;;;;10367770;28;95732;-60
2023/01/31 14:17:11;;;;;;;;;;;14.90;61.90;;;;;;10369459;28;94530;-60
2023/01/31 14:22:19;;;;;;;;;;;14.80;62.00;;;;;;10369968;28;95171;-60
2023/01/31 14:27:22;;;;;;;;;;;14.80;61.90;;;;;;10351852;28;94618;-60
2023/01/31 14:32:28;;;;;;;;;;;14.80;61.90;;;;;;10367977;28;93472;-60
2023/01/31 14:37:53;;;;;;;;;;;14.80;61.90;;;;;;10354521;28;94399;-60
2023/01/31 14:42:55;;;;;;;;;;;14.80;61.90;;;;;;10376513;28;94584;-59
2023/01/31 14:48:04;;;;;;;;;;;14.80;61.90;;;;;;10358836;28;92547;-60
2023/01/31 14:53:24;;;;;;;;;;;14.80;61.90;;;;;;10376132;28;93643;-60
2023/01/31 14:58:28;;;;;;;;;;;14.80;61.90;;;;;;10357459;28;93648;-60
2023/01/31 15:03:34;;;;;;;;;;;14.80;63.00;;;;;;10372769;28;97064;-60
2023/01/31 15:08:40;;;;;;;;;;;14.80;61.90;;;;;;10373794;28;93325;-60
2023/01/31 15:13:47;;;;;;;;;;;14.80;62.00;;;;;;10357589;28;93646;-60
2023/01/31 15:18:51;;;;;;;;;;;14.70;61.90;;;;;;10375134;28;93457;-60
2023/01/31 15:23:53;;;;;;;;;;;14.70;61.80;;;;;;10375708;28;93365;-59
2023/01/31 15:28:56;;;;;;;;;;;14.70;61.80;;;;;;10374284;28;93268;-60
2023/01/31 15:34:00;;;;;;;;;;;14.70;61.80;;;;;;10375010;28;92444;-60
2023/01/31 15:39:15;;;;;;;;;;;14.70;61.80;;;;;;10375214;28;92590;-59
2023/01/31 15:44:19;;;;;;;;;;;14.70;61.90;;;;;;10374421;28;94475;-60
2023/01/31 15:49:20;;;;;;;;;;;14.70;61.90;;;;;;10373632;28;94664;-60
2023/01/31 15:54:50;;;;;;;;;;;14.70;61.80;;;;;;10371209;28;95902;-60
2023/01/31 15:59:52;;;;;;;;;;;14.70;61.80;;;;;;10374346;28;93103;-60
2023/01/31 16:04:54;;;;;;;;;;;14.70;61.80;;;;;;10373278;28;94415;-60
2023/01/31 16:09:56;;;;;;;;;;;14.70;61.80;;;;;;10372846;28;93928;-59
2023/01/31 16:15:01;;;;;;;;;;;14.70;61.80;;;;;;10373465;28;93807;-60
2023/01/31 16:20:04;;;;;;;;;;;14.70;61.80;;;;;;10354279;28;93278;-60
2023/01/31 16:25:17;;;;;;;;;;;14.70;61.70;;;;;;10372477;28;93223;-60
2023/01/31 16:30:19;;;;;;;;;;;14.70;61.70;;;;;;10373256;28;93094;-59
2023/01/31 16:35:23;;;;;;;;;;;14.60;61.60;;;;;;10354155;28;92734;-60
2023/01/31 16:40:27;;;;;;;;;;;14.60;61.60;;;;;;10354748;28;92879;-60
2023/01/31 16:45:30;;;;;;;;;;;14.60;61.40;;;;;;10351796;28;96958;-59
2023/01/31 16:50:32;;;;;;;;;;;14.70;61.60;;;;;;10353323;28;93566;-60
2023/01/31 16:55:44;;;;;;;;;;;14.80;61.50;;;;;;10371942;28;93440;-60
2023/01/31 17:00:46;;;;;;;;;;;15.10;61.20;;;;;;10371097;28;92554;-59
2023/01/31 17:05:48;;;;;;;;;;;15.40;60.60;;;;;;10371486;28;94205;-59
2023/01/31 17:10:50;;;;;;;;;;;15.60;60.00;;;;;;10372396;28;94459;-60
2023/01/31 17:15:52;;;;;;;;;;;15.90;59.50;;;;;;10370587;28;94527;-60
2023/01/31 17:20:54;;;;;;;;;;;16.10;59.00;;;;;;10372037;28;93619;-60
2023/01/31 17:25:56;;;;;;;;;;;16.30;58.60;;;;;;10353553;28;94479;-60
2023/01/31 17:30:58;;;;;;;;;;;16.60;58.30;;;;;;10417932;28;93989;-60
2023/01/31 17:36:00;;;;;;;;;;;16.70;57.90;;;;;;10365790;28;94906;-59
2023/01/31 17:41:03;;;;;;;;;;;16.90;57.50;;;;;;10369967;28;93494;-60
2023/01/31 17:46:04;;;;;;;;;;;17.00;57.10;;;;;;10369652;28;93025;-60
2023/01/31 17:51:06;;;;;;;;;;;17.10;57.00;;;;;;10352514;28;94683;-60
2023/01/31 17:56:08;;;;;;;;;;;17.10;56.90;;;;;;10369409;28;96464;-60
2023/01/31 18:01:12;;;;;;;;;;;17.10;56.80;;;;;;10370433;28;94147;-60
2023/01/31 18:06:14;;;;;;;;;;;17.10;57.00;;;;;;10368733;28;94752;-60
2023/01/31 18:11:16;;;;;;;;;;;17.20;56.80;;;;;;10373105;28;93682;-60
2023/01/31 18:16:20;;;;;;;;;;;17.30;56.70;;;;;;10386085;28;93829;-60
2023/01/31 18:21:22;;;;;;;;;;;17.40;56.50;;;;;;10423090;28;94513;-60
2023/01/31 18:26:24;;;;;;;;;;;17.50;56.30;;;;;;10430202;28;95407;-60
2023/01/31 18:31:25;;;;;;;;;;;17.60;56.10;;;;;;10418319;28;93488;-61
2023/01/31 18:36:27;;;;;;;;;;;17.70;55.90;;;;;;10418217;28;92870;-60
2023/01/31 18:41:29;;;;;;;;;;;17.60;55.80;;;;;;10414943;28;95077;-60
2023/01/31 18:46:30;;;;;;;;;;;17.50;55.80;;;;;;10404675;28;92885;-60
2023/01/31 18:51:32;;;;;;;;;;;17.50;56.50;;;;;;10416075;28;94531;-60
2023/01/31 18:56:34;;;;;;;;;;;17.40;58.50;;;;;;10418032;28;94917;-61
2023/01/31 19:01:36;;;;;;;;;;;17.50;58.00;;;;;;10399196;28;92886;-59
2023/01/31 19:06:39;;;;;;;;;;;17.50;58.00;;;;;;10416900;28;93580;-61
2023/01/31 19:11:42;;;;;;;;;;;17.60;57.90;;;;;;10398585;28;94025;-61
2023/01/31 19:16:44;;;;;;;;;;;17.60;57.50;;;;;;10395973;28;96078;-61
2023/01/31 19:21:47;;;;;;;;;;;17.80;57.80;;;;;;10413139;27;113976;-61
2023/01/31 19:26:49;;;;;;;;;;;17.80;61.40;;;;;;10414627;28;93443;-60
2023/01/31 19:31:52;;;;;;;;;;;17.80;59.10;;;;;;10395749;28;93662;-61
2023/01/31 19:36:54;;;;;;;;;;;17.80;58.50;;;;;;10415672;28;94464;-60
2023/01/31 19:41:56;;;;;;;;;;;17.90;58.40;;;;;;10414816;28;93756;-61
2023/01/31 19:46:58;;;;;;;;;;;17.90;58.10;;;;;;10412815;28;93659;-61
2023/01/31 19:52:00;;;;;;;;;;;18.00;58.00;;;;;;10396736;28;92930;-60
2023/01/31 19:57:01;;;;;;;;;;;18.00;57.90;;;;;;10415175;28;93821;-61
2023/01/31 20:02:03;;;;;;;;;;;18.00;57.80;;;;;;10413732;28;93273;-60
2023/01/31 20:07:05;;;;;;;;;;;18.00;57.80;;;;;;10411094;28;96866;-60
2023/01/31 20:12:07;;;;;;;;;;;18.00;57.90;;;;;;10414380;28;94618;-60
2023/01/31 20:17:08;;;;;;;;;;;18.00;57.80;;;;;;10413368;28;93282;-60
2023/01/31 20:22:10;;;;;;;;;;;18.00;57.80;;;;;;10414977;28;93089;-60
2023/01/31 20:27:12;;;;;;;;;;;18.10;57.60;;;;;;10412645;28;93619;-60
2023/01/31 20:32:16;;;;;;;;;;;18.10;57.60;;;;;;10413498;28;94061;-60
2023/01/31 20:37:17;;;;;;;;;;;18.00;57.50;;;;;;10394910;28;94248;-60
2023/01/31 20:42:19;;;;;;;;;;;18.00;57.60;;;;;;10413400;28;92757;-60
2023/01/31 20:47:21;;;;;;;;;;;17.90;57.60;;;;;;10394866;28;93973;-60
2023/01/31 20:52:23;;;;;;;;;;;17.80;57.70;;;;;;10413397;28;94218;-61
2023/01/31 20:57:25;;;;;;;;;;;17.70;57.90;;;;;;10409935;28;95890;-60
2023/01/31 21:02:26;;;;;;;;;;;17.50;58.00;;;;;;10412846;28;93481;-60
2023/01/31 21:07:28;;;;;;;;;;;17.40;58.10;;;;;;10412831;28;94168;-61
2023/01/31 21:12:30;;;;;;;;;;;17.30;58.30;;;;;;10412398;28;93569;-60
2023/01/31 21:17:32;;;;;;;;;;;17.20;58.40;;;;;;10394528;28;94733;-60
2023/01/31 21:22:40;;;;;;;;;;;17.10;58.80;;;;;;10411224;28;93454;-61
2023/01/31 21:27:42;;;;;;;;;;;17.00;58.90;;;;;;10411844;28;93442;-60
2023/01/31 21:32:45;;;;;;;;;;;16.90;58.90;;;;;;10412757;28;92454;-61
2023/01/31 21:37:47;;;;;;;;;;;16.80;59.00;;;;;;10412576;28;94646;-60
2023/01/31 21:42:49;;;;;;;;;;;16.70;58.90;;;;;;10411722;28;94189;-61
2023/01/31 21:53:11;;;;;;;;;;;16.60;59.00;;;;;;10411233;28;93439;-60
2023/01/31 21:58:13;;;;;;;;;;;16.50;59.00;;;;;;10393933;28;94524;-61
2023/01/31 22:03:15;;;;;;;;;;;16.40;59.10;;;;;;10392428;28;95234;-60
2023/01/31 22:08:17;;;;;;;;;;;16.40;59.10;;;;;;10410305;28;93525;-61
2023/01/31 22:13:19;;;;;;;;;;;16.30;59.20;;;;;;10410924;28;93500;-61
2023/01/31 22:18:21;;;;;;;;;;;16.30;59.20;;;;;;10393493;28;93520;-60
2023/01/31 22:23:22;;;;;;;;;;;16.20;59.20;;;;;;10411056;28;92680;-61
2023/01/31 22:28:24;;;;;;;;;;;16.20;59.10;;;;;;10392407;28;94224;-60
2023/01/31 22:33:32;;;;;;;;;;;16.10;58.80;;;;;;10393291;28;94057;-60
2023/01/31 22:38:34;;;;;;;;;;;16.00;59.00;;;;;;10407273;28;96064;-61
2023/01/31 22:43:36;;;;;;;;;;;16.00;58.70;;;;;;10392464;28;93694;-61
2023/01/31 22:48:38;;;;;;;;;;;16.00;58.70;;;;;;10410483;28;93017;-60
2023/01/31 22:53:40;;;;;;;;;;;15.90;58.70;;;;;;10409951;28;93031;-60
2023/01/31 22:58:42;;;;;;;;;;;15.80;58.60;;;;;;10414142;27;94329;-60
2023/01/31 23:03:44;;;;;;;;;;;15.90;58.70;;;;;;10416270;28;94448;-60
2023/01/31 23:08:46;;;;;;;;;;;15.80;58.60;;;;;;10398554;28;94533;-60
2023/01/31 23:13:48;;;;;;;;;;;15.80;58.70;;;;;;10417072;28;92114;-60
2023/01/31 23:18:50;;;;;;;;;;;15.70;58.80;;;;;;10416128;28;94462;-60
2023/01/31 23:23:52;;;;;;;;;;;15.70;58.70;;;;;;10417436;28;94681;-60
2023/01/31 23:28:53;;;;;;;;;;;15.70;58.90;;;;;;10413663;28;96451;-59
2023/01/31 23:33:55;;;;;;;;;;;15.70;58.90;;;;;;10416056;28;94486;-60
2023/01/31 23:38:57;;;;;;;;;;;15.60;59.90;;;;;;10415806;28;93698;-60
2023/01/31 23:43:59;;;;;;;;;;;15.60;58.90;;;;;;10415761;28;93405;-60
2023/01/31 23:49:01;;;;;;;;;;;15.60;59.00;;;;;;10415166;28;93613;-60
2023/01/31 23:54:02;;;;;;;;;;;15.60;59.00;;;;;;10414557;28;93633;-60
2023/01/31 23:59:04;;;;;;;;;;;15.60;59.10;;;;;;10397820;28;93283;-60
